VOZ882 YSSY-YMML
Flight info
| Callsign | VOZ882 |
|---|---|
| Flight time | 1h 24m |
| Altitude | 36000 |
| Route | WOL H65 LEECE Q29 ML |
| Aircraft | B738/M-SDE2E3FGHIRWXY/LB1 |
Departure
| Time | 2026-05-04 08:52 |
|---|---|
| Airport | Sydney Kingsford Smith International Airport (YSSY) |
Arrival
| Time | 2026-05-04 10:16 |
|---|---|
| Airport | Melbourne Airport (YMML) |
| Time | Latitude | Longitude | Altitude | Speed | Heading |
|---|---|---|---|---|---|
| 2026-05-04 08:08 | -33.93556 | 151.17991 | 29 ft | 0 kts | 280° |
| 2026-05-04 08:35 | -33.93557 | 151.17999 | 29 ft | 0 kts | 279° |
| 2026-05-04 08:37 | -33.93559 | 151.18017 | 29 ft | 4 kts | 273° |
| 2026-05-04 08:37 | -33.93557 | 151.18047 | 29 ft | 4 kts | 241° |
| 2026-05-04 08:37 | -33.93542 | 151.18063 | 29 ft | 1 kts | 190° |
| 2026-05-04 08:40 | -33.93555 | 151.18061 | 29 ft | 5 kts | 190° |
| 2026-05-04 08:40 | -33.93622 | 151.18054 | 29 ft | 14 kts | 179° |
| 2026-05-04 08:41 | -33.93718 | 151.18061 | 29 ft | 12 kts | 170° |
| 2026-05-04 08:41 | -33.93769 | 151.18046 | 29 ft | 12 kts | 224° |
| 2026-05-04 08:41 | -33.93800 | 151.17945 | 29 ft | 15 kts | 255° |
| 2026-05-04 08:41 | -33.93829 | 151.17818 | 29 ft | 12 kts | 253° |
| 2026-05-04 08:42 | -33.93912 | 151.17782 | 28 ft | 18 kts | 167° |
| 2026-05-04 08:42 | -33.94055 | 151.17819 | 28 ft | 24 kts | 168° |
| 2026-05-04 08:42 | -33.94236 | 151.17866 | 29 ft | 28 kts | 168° |
| 2026-05-04 08:42 | -33.94398 | 151.17907 | 29 ft | 17 kts | 169° |
| 2026-05-04 08:43 | -33.94531 | 151.17887 | 29 ft | 22 kts | 174° |
| 2026-05-04 08:43 | -33.94700 | 151.17928 | 29 ft | 27 kts | 168° |
| 2026-05-04 08:43 | -33.94900 | 151.17979 | 29 ft | 30 kts | 167° |
| 2026-05-04 08:43 | -33.95052 | 151.18019 | 29 ft | 17 kts | 166° |
| 2026-05-04 08:44 | -33.95097 | 151.18118 | 29 ft | 16 kts | 78° |
| 2026-05-04 08:44 | -33.95072 | 151.18257 | 29 ft | 17 kts | 78° |
| 2026-05-04 08:46 | -33.95899 | 151.18871 | 29 ft | 35 kts | 168° |
| 2026-05-04 08:46 | -33.96141 | 151.18933 | 29 ft | 36 kts | 168° |
| 2026-05-04 08:46 | -33.96392 | 151.18999 | 29 ft | 38 kts | 167° |
| 2026-05-04 08:46 | -33.96631 | 151.19060 | 29 ft | 27 kts | 168° |
| 2026-05-04 08:47 | -33.96809 | 151.19063 | 29 ft | 27 kts | 175° |
| 2026-05-04 08:47 | -33.96981 | 151.19106 | 29 ft | 24 kts | 168° |
| 2026-05-04 08:47 | -33.97095 | 151.19138 | 29 ft | 13 kts | 157° |
| 2026-05-04 08:47 | -33.97123 | 151.19209 | 29 ft | 9 kts | 80° |
| 2026-05-04 08:48 | -33.97116 | 151.19253 | 28 ft | 2 kts | 77° |
| 2026-05-04 08:48 | -33.97114 | 151.19260 | 28 ft | 0 kts | 77° |
| 2026-05-04 08:49 | -33.97112 | 151.19273 | 27 ft | 7 kts | 76° |
| 2026-05-04 08:50 | -33.97032 | 151.19364 | 26 ft | 0 kts | 351° |
| 2026-05-04 08:51 | -33.96990 | 151.19354 | 26 ft | 24 kts | 348° |
| 2026-05-04 08:51 | -33.96568 | 151.19244 | 23 ft | 97 kts | 348° |
| 2026-05-04 08:51 | -33.95705 | 151.19017 | 59 ft | 151 kts | 349° |
| 2026-05-04 08:52 | -33.94641 | 151.18737 | 706 ft | 159 kts | 351° |
| 2026-05-04 08:52 | -33.93602 | 151.18874 | 1579 ft | 151 kts | 29° |
| 2026-05-04 08:52 | -33.92933 | 151.19906 | 2134 ft | 172 kts | 69° |
| 2026-05-04 08:52 | -33.92872 | 151.21442 | 2679 ft | 195 kts | 91° |
| 2026-05-04 08:53 | -33.93306 | 151.23049 | 3341 ft | 207 kts | 111° |
| 2026-05-04 08:54 | -33.93462 | 151.37924 | 6708 ft | 293 kts | 83° |
| 2026-05-04 08:55 | -33.93394 | 151.40378 | 7491 ft | 294 kts | 83° |
| 2026-05-04 08:55 | -33.93323 | 151.42862 | 8233 ft | 298 kts | 83° |
| 2026-05-04 08:55 | -33.93248 | 151.45378 | 8952 ft | 302 kts | 83° |
| 2026-05-04 08:55 | -33.93172 | 151.47912 | 9724 ft | 305 kts | 84° |
| 2026-05-04 08:57 | -34.04838 | 151.49475 | 12829 ft | 367 kts | 233° |
| 2026-05-04 09:01 | -34.29639 | 151.15244 | 21583 ft | 405 kts | 234° |
| 2026-05-04 09:01 | -34.31530 | 151.12644 | 22124 ft | 408 kts | 235° |
| 2026-05-04 09:01 | -34.33407 | 151.10061 | 22655 ft | 410 kts | 235° |
| 2026-05-04 09:01 | -34.35291 | 151.07466 | 23184 ft | 412 kts | 235° |
| 2026-05-04 09:02 | -34.37188 | 151.04851 | 23673 ft | 414 kts | 235° |
| 2026-05-04 09:02 | -34.39072 | 151.02254 | 24082 ft | 416 kts | 236° |
| 2026-05-04 09:02 | -34.40984 | 150.99614 | 24496 ft | 419 kts | 236° |
| 2026-05-04 09:02 | -34.42915 | 150.96947 | 24879 ft | 422 kts | 236° |
| 2026-05-04 09:03 | -34.44864 | 150.94253 | 25258 ft | 425 kts | 236° |
| 2026-05-04 09:03 | -34.46815 | 150.91555 | 25639 ft | 427 kts | 236° |
| 2026-05-04 09:03 | -34.48781 | 150.88834 | 26009 ft | 430 kts | 236° |
| 2026-05-04 09:03 | -34.50757 | 150.86095 | 26396 ft | 432 kts | 236° |
| 2026-05-04 09:04 | -34.52739 | 150.83350 | 26788 ft | 434 kts | 236° |
| 2026-05-04 09:04 | -34.54731 | 150.80586 | 27133 ft | 436 kts | 237° |
| 2026-05-04 09:04 | -34.56699 | 150.77775 | 27455 ft | 436 kts | 239° |
| 2026-05-04 09:04 | -34.58520 | 150.74886 | 27785 ft | 437 kts | 241° |
| 2026-05-04 09:05 | -34.60328 | 150.71853 | 28021 ft | 439 kts | 242° |
| 2026-05-04 09:05 | -34.63857 | 150.65829 | 28000 ft | 442 kts | 242° |
| 2026-05-04 09:06 | -34.67427 | 150.59817 | 28019 ft | 437 kts | 242° |
| 2026-05-04 09:08 | -34.81799 | 150.35794 | 28046 ft | 438 kts | 242° |
| 2026-05-04 09:08 | -34.85359 | 150.29820 | 28031 ft | 438 kts | 242° |
| 2026-05-04 09:09 | -34.88938 | 150.23803 | 28023 ft | 438 kts | 242° |
| 2026-05-04 09:09 | -34.92507 | 150.17796 | 28035 ft | 438 kts | 242° |
| 2026-05-04 09:10 | -34.96069 | 150.11788 | 28048 ft | 437 kts | 242° |
| 2026-05-04 09:10 | -34.99634 | 150.05764 | 28059 ft | 438 kts | 242° |
| 2026-05-04 09:10 | -35.01415 | 150.02753 | 28233 ft | 440 kts | 242° |
| 2026-05-04 09:11 | -35.03209 | 149.99713 | 28585 ft | 442 kts | 242° |
| 2026-05-04 09:11 | -35.05007 | 149.96668 | 28969 ft | 443 kts | 242° |
| 2026-05-04 09:11 | -35.06787 | 149.93652 | 29304 ft | 445 kts | 242° |
| 2026-05-04 09:11 | -35.08597 | 149.90585 | 29610 ft | 447 kts | 242° |
| 2026-05-04 09:12 | -35.10417 | 149.87499 | 29996 ft | 447 kts | 242° |
| 2026-05-04 09:12 | -35.12220 | 149.84451 | 30735 ft | 437 kts | 243° |
| 2026-05-04 09:14 | -35.24555 | 149.63443 | 32875 ft | 439 kts | 243° |
| 2026-05-04 09:14 | -35.26338 | 149.60397 | 33120 ft | 439 kts | 243° |
| 2026-05-04 09:14 | -35.28107 | 149.57378 | 33659 ft | 434 kts | 244° |
| 2026-05-04 09:14 | -35.29854 | 149.54401 | 34285 ft | 425 kts | 244° |
| 2026-05-04 09:15 | -35.31563 | 149.51485 | 34776 ft | 419 kts | 244° |
| 2026-05-04 09:15 | -35.33250 | 149.48598 | 35130 ft | 416 kts | 244° |
| 2026-05-04 09:15 | -35.34933 | 149.45705 | 35369 ft | 416 kts | 244° |
| 2026-05-04 09:15 | -35.36610 | 149.42815 | 35559 ft | 418 kts | 244° |
| 2026-05-04 09:17 | -35.50087 | 149.19581 | 36069 ft | 414 kts | 244° |
| 2026-05-04 09:18 | -35.53422 | 149.13807 | 36062 ft | 413 kts | 244° |
| 2026-05-04 09:18 | -35.56735 | 149.08062 | 36086 ft | 412 kts | 244° |
| 2026-05-04 09:19 | -35.60052 | 149.02299 | 36063 ft | 413 kts | 244° |
| 2026-05-04 09:19 | -35.63363 | 148.96540 | 36071 ft | 413 kts | 244° |
| 2026-05-04 09:20 | -35.66613 | 148.90872 | 36063 ft | 415 kts | 244° |
| 2026-05-04 09:20 | -35.69949 | 148.85049 | 36076 ft | 417 kts | 244° |
| 2026-05-04 09:21 | -35.73281 | 148.79224 | 36066 ft | 420 kts | 244° |
| 2026-05-04 09:21 | -35.76652 | 148.73322 | 36072 ft | 422 kts | 244° |
| 2026-05-04 09:22 | -35.80015 | 148.67425 | 36070 ft | 423 kts | 244° |
| 2026-05-04 09:22 | -35.83399 | 148.61480 | 36065 ft | 423 kts | 244° |
| 2026-05-04 09:23 | -35.86777 | 148.55535 | 36077 ft | 423 kts | 244° |
| 2026-05-04 09:23 | -35.90143 | 148.49589 | 36066 ft | 422 kts | 244° |
| 2026-05-04 09:25 | -36.02931 | 148.26796 | 36058 ft | 421 kts | 244° |
| 2026-05-04 09:26 | -36.06252 | 148.20854 | 36082 ft | 420 kts | 244° |
| 2026-05-04 09:26 | -36.09564 | 148.14916 | 36079 ft | 422 kts | 244° |
| 2026-05-04 09:27 | -36.12897 | 148.08938 | 36070 ft | 422 kts | 244° |
| 2026-05-04 09:27 | -36.16241 | 148.02956 | 36067 ft | 422 kts | 244° |
| 2026-05-04 09:28 | -36.19577 | 147.96979 | 36067 ft | 422 kts | 244° |
| 2026-05-04 09:28 | -36.22890 | 147.91030 | 36090 ft | 422 kts | 244° |
| 2026-05-04 09:29 | -36.26216 | 147.85044 | 36075 ft | 422 kts | 244° |
| 2026-05-04 09:29 | -36.29985 | 147.79392 | 36061 ft | 443 kts | 224° |
| 2026-05-04 09:30 | -36.32742 | 147.77532 | 36069 ft | 462 kts | 207° |
| 2026-05-04 09:30 | -36.35922 | 147.76578 | 36072 ft | 476 kts | 197° |
| 2026-05-04 09:30 | -36.42551 | 147.75677 | 36052 ft | 481 kts | 193° |
| 2026-05-04 09:31 | -36.49236 | 147.74962 | 36058 ft | 483 kts | 192° |
| 2026-05-04 09:31 | -36.55809 | 147.74244 | 36051 ft | 483 kts | 192° |
| 2026-05-04 09:32 | -36.62509 | 147.73504 | 36045 ft | 484 kts | 192° |
| 2026-05-04 09:34 | -36.88919 | 147.70475 | 36034 ft | 485 kts | 193° |
| 2026-05-04 09:34 | -36.95645 | 147.69698 | 36023 ft | 485 kts | 193° |
| 2026-05-04 09:35 | -37.02376 | 147.68921 | 36015 ft | 486 kts | 193° |
| 2026-05-04 09:35 | -37.08865 | 147.68112 | 35995 ft | 483 kts | 199° |
| 2026-05-04 09:37 | -37.21765 | 147.51121 | 35999 ft | 385 kts | 288° |
| 2026-05-04 09:37 | -37.21037 | 147.47895 | 35979 ft | 384 kts | 291° |
| 2026-05-04 09:38 | -37.19345 | 147.41560 | 35994 ft | 383 kts | 292° |
| 2026-05-04 09:38 | -37.17691 | 147.35575 | 35983 ft | 384 kts | 292° |
| 2026-05-04 09:39 | -37.15961 | 147.29220 | 35977 ft | 388 kts | 288° |
| 2026-05-04 09:39 | -37.15322 | 147.22430 | 35996 ft | 394 kts | 280° |
| 2026-05-04 09:40 | -37.14819 | 147.15604 | 35975 ft | 389 kts | 281° |
| 2026-05-04 09:40 | -37.14562 | 147.12297 | 35811 ft | 377 kts | 281° |
| 2026-05-04 09:40 | -37.14299 | 147.09069 | 35119 ft | 380 kts | 281° |
| 2026-05-04 09:41 | -37.14024 | 147.05784 | 34703 ft | 378 kts | 281° |
| 2026-05-04 09:42 | -37.12171 | 146.84103 | 31406 ft | 367 kts | 282° |
| 2026-05-04 09:43 | -37.11945 | 146.81484 | 31017 ft | 364 kts | 282° |
| 2026-05-04 09:43 | -37.11714 | 146.78819 | 30612 ft | 361 kts | 283° |
| 2026-05-04 09:43 | -37.11456 | 146.75848 | 30165 ft | 360 kts | 283° |
| 2026-05-04 09:43 | -37.11188 | 146.72769 | 29634 ft | 357 kts | 283° |
| 2026-05-04 09:44 | -37.10959 | 146.70139 | 29265 ft | 353 kts | 283° |
| 2026-05-04 09:44 | -37.10719 | 146.67400 | 28891 ft | 349 kts | 283° |
| 2026-05-04 09:44 | -37.10462 | 146.64463 | 28478 ft | 345 kts | 283° |
| 2026-05-04 09:46 | -37.08669 | 146.44333 | 25775 ft | 324 kts | 282° |
| 2026-05-04 09:46 | -37.08418 | 146.41539 | 25390 ft | 322 kts | 282° |
| 2026-05-04 09:46 | -37.08174 | 146.38816 | 25025 ft | 317 kts | 281° |
| 2026-05-04 09:47 | -37.08223 | 146.36014 | 24616 ft | 328 kts | 266° |
| 2026-05-04 09:47 | -37.08805 | 146.33223 | 24239 ft | 335 kts | 257° |
| 2026-05-04 09:49 | -37.17647 | 146.16060 | 21521 ft | 332 kts | 243° |
| 2026-05-04 09:49 | -37.18904 | 146.13681 | 21154 ft | 330 kts | 242° |
| 2026-05-04 09:49 | -37.20167 | 146.11287 | 20793 ft | 329 kts | 242° |
| 2026-05-04 09:51 | -37.27576 | 145.97181 | 18637 ft | 316 kts | 241° |
| 2026-05-04 09:51 | -37.28779 | 145.94884 | 18277 ft | 314 kts | 241° |
| 2026-05-04 09:51 | -37.29980 | 145.92591 | 17878 ft | 313 kts | 241° |
| 2026-05-04 09:51 | -37.31168 | 145.90324 | 17495 ft | 308 kts | 242° |
| 2026-05-04 09:52 | -37.32336 | 145.88106 | 17144 ft | 301 kts | 242° |
| 2026-05-04 09:52 | -37.33488 | 145.85915 | 16805 ft | 301 kts | 242° |
| 2026-05-04 09:52 | -37.34641 | 145.83721 | 16462 ft | 300 kts | 242° |
| 2026-05-04 09:52 | -37.35792 | 145.81524 | 16130 ft | 302 kts | 242° |
| 2026-05-04 09:53 | -37.36985 | 145.79237 | 15855 ft | 329 kts | 242° |
| 2026-05-04 09:53 | -37.38286 | 145.76734 | 15464 ft | 363 kts | 240° |
| 2026-05-04 09:53 | -37.39711 | 145.74009 | 15018 ft | 378 kts | 240° |
| 2026-05-04 09:53 | -37.41159 | 145.71257 | 14574 ft | 378 kts | 240° |
| 2026-05-04 09:54 | -37.42601 | 145.68514 | 14122 ft | 373 kts | 240° |
| 2026-05-04 09:54 | -37.44020 | 145.65804 | 13676 ft | 369 kts | 240° |
| 2026-05-04 09:54 | -37.45425 | 145.63120 | 13195 ft | 366 kts | 240° |
| 2026-05-04 09:54 | -37.46743 | 145.60771 | 12718 ft | 366 kts | 238° |
| 2026-05-04 09:55 | -37.48261 | 145.58200 | 12280 ft | 365 kts | 237° |
| 2026-05-04 09:55 | -37.49775 | 145.55655 | 11835 ft | 363 kts | 237° |
| 2026-05-04 09:55 | -37.51275 | 145.53114 | 11419 ft | 358 kts | 238° |
| 2026-05-04 09:55 | -37.52748 | 145.50593 | 11014 ft | 357 kts | 237° |
| 2026-05-04 09:56 | -37.54215 | 145.48067 | 10602 ft | 356 kts | 237° |
| 2026-05-04 09:56 | -37.55666 | 145.45563 | 10374 ft | 350 kts | 238° |
| 2026-05-04 09:56 | -37.57097 | 145.43094 | 10227 ft | 349 kts | 238° |
| 2026-05-04 09:56 | -37.58523 | 145.40632 | 10064 ft | 344 kts | 238° |
| 2026-05-04 09:57 | -37.59916 | 145.38232 | 9736 ft | 333 kts | 238° |
| 2026-05-04 09:57 | -37.61258 | 145.35916 | 9344 ft | 319 kts | 238° |
| 2026-05-04 09:57 | -37.62543 | 145.33695 | 9001 ft | 306 kts | 239° |
| 2026-05-04 09:57 | -37.63772 | 145.31579 | 8667 ft | 293 kts | 236° |
| 2026-05-04 09:58 | -37.65300 | 145.29967 | 8371 ft | 293 kts | 212° |
| 2026-05-04 09:58 | -37.67264 | 145.29337 | 8076 ft | 294 kts | 188° |
| 2026-05-04 09:58 | -37.69291 | 145.29382 | 7891 ft | 287 kts | 183° |
| 2026-05-04 10:00 | -37.81568 | 145.25396 | 6633 ft | 261 kts | 221° |
| 2026-05-04 10:00 | -37.83038 | 145.24075 | 6381 ft | 257 kts | 221° |
| 2026-05-04 10:02 | -37.88753 | 145.32339 | 5986 ft | 267 kts | 32° |
| 2026-05-04 10:04 | -37.78331 | 145.34793 | 5999 ft | 226 kts | 309° |
| 2026-05-04 10:04 | -37.77596 | 145.33004 | 6019 ft | 247 kts | 284° |
| 2026-05-04 10:04 | -37.77361 | 145.30766 | 6022 ft | 275 kts | 277° |
| 2026-05-04 10:04 | -37.77243 | 145.28207 | 6015 ft | 307 kts | 275° |
| 2026-05-04 10:05 | -37.77145 | 145.25445 | 5924 ft | 316 kts | 274° |
| 2026-05-04 10:05 | -37.77047 | 145.22684 | 5639 ft | 313 kts | 274° |
| 2026-05-04 10:05 | -37.76938 | 145.19924 | 5472 ft | 315 kts | 274° |
| 2026-05-04 10:05 | -37.76819 | 145.17159 | 5285 ft | 316 kts | 275° |
| 2026-05-04 10:06 | -37.76693 | 145.14364 | 5107 ft | 319 kts | 275° |
| 2026-05-04 10:06 | -37.76594 | 145.11554 | 4933 ft | 322 kts | 270° |
| 2026-05-04 10:06 | -37.77056 | 145.08802 | 4682 ft | 316 kts | 251° |
| 2026-05-04 10:08 | -37.86532 | 145.02393 | 3637 ft | 252 kts | 192° |
| 2026-05-04 10:08 | -37.88266 | 145.02149 | 3500 ft | 247 kts | 203° |
| 2026-05-04 10:08 | -37.89704 | 145.01158 | 3386 ft | 230 kts | 228° |
| 2026-05-04 10:08 | -37.90872 | 144.99782 | 3266 ft | 228 kts | 231° |
| 2026-05-04 10:09 | -37.91986 | 144.98381 | 3145 ft | 224 kts | 232° |
| 2026-05-04 10:09 | -37.93009 | 144.96966 | 3009 ft | 215 kts | 246° |
| 2026-05-04 10:09 | -37.93235 | 144.95222 | 2990 ft | 199 kts | 284° |
| 2026-05-04 10:09 | -37.92708 | 144.93669 | 2981 ft | 186 kts | 299° |
| 2026-05-04 10:10 | -37.91920 | 144.92417 | 2981 ft | 180 kts | 313° |
| 2026-05-04 10:10 | -37.90860 | 144.91568 | 2987 ft | 181 kts | 327° |
| 2026-05-04 10:10 | -37.89734 | 144.90865 | 2983 ft | 181 kts | 326° |
| 2026-05-04 10:10 | -37.88982 | 144.90387 | 2964 ft | 185 kts | 326° |
| 2026-05-04 10:11 | -37.87799 | 144.89635 | 2797 ft | 191 kts | 327° |
| 2026-05-04 10:11 | -37.86636 | 144.88904 | 2707 ft | 183 kts | 327° |
| 2026-05-04 10:11 | -37.85535 | 144.88215 | 2633 ft | 170 kts | 326° |
| 2026-05-04 10:11 | -37.84518 | 144.87581 | 2549 ft | 155 kts | 325° |
| 2026-05-04 10:12 | -37.83595 | 144.87003 | 2498 ft | 143 kts | 328° |
| 2026-05-04 10:12 | -37.82613 | 144.86665 | 2415 ft | 148 kts | 340° |
| 2026-05-04 10:12 | -37.81600 | 144.86466 | 2301 ft | 144 kts | 342° |
| 2026-05-04 10:12 | -37.80547 | 144.86261 | 2138 ft | 164 kts | 343° |
| 2026-05-04 10:13 | -37.79473 | 144.86127 | 1996 ft | 147 kts | 347° |
| 2026-05-04 10:13 | -37.78559 | 144.86023 | 1926 ft | 120 kts | 345° |
| 2026-05-04 10:13 | -37.77767 | 144.85900 | 1752 ft | 111 kts | 341° |
| 2026-05-04 10:13 | -37.77005 | 144.85718 | 1541 ft | 114 kts | 338° |
| 2026-05-04 10:14 | -37.76183 | 144.85533 | 1420 ft | 125 kts | 345° |
| 2026-05-04 10:14 | -37.75305 | 144.85381 | 1399 ft | 128 kts | 344° |
| 2026-05-04 10:16 | -37.68937 | 144.84165 | 463 ft | 138 kts | 352° |
| 2026-05-04 10:16 | -37.68013 | 144.83990 | 358 ft | 126 kts | 352° |
| 2026-05-04 10:16 | -37.67332 | 144.83868 | 372 ft | 65 kts | 352° |
| 2026-05-04 10:16 | -37.67066 | 144.83855 | 383 ft | 26 kts | 355° |
| 2026-05-04 10:17 | -37.66949 | 144.83860 | 387 ft | 12 kts | 15° |
| 2026-05-04 10:17 | -37.66894 | 144.83883 | 389 ft | 6 kts | 21° |
| 2026-05-04 10:19 | -37.66829 | 144.83916 | 391 ft | 0 kts | 22° |
| 2026-05-04 10:19 | -37.66810 | 144.83926 | 391 ft | 7 kts | 23° |
| 2026-05-04 10:19 | -37.66754 | 144.83967 | 393 ft | 12 kts | 41° |
| 2026-05-04 10:20 | -37.66722 | 144.84086 | 394 ft | 17 kts | 98° |
| 2026-05-04 10:20 | -37.66796 | 144.84189 | 391 ft | 18 kts | 160° |
| 2026-05-04 10:20 | -37.66939 | 144.84220 | 386 ft | 24 kts | 172° |
| 2026-05-04 10:20 | -37.67062 | 144.84242 | 384 ft | 15 kts | 171° |
| 2026-05-04 10:21 | -37.67174 | 144.84269 | 381 ft | 16 kts | 155° |
| 2026-05-04 10:21 | -37.67200 | 144.84394 | 383 ft | 16 kts | 84° |
| 2026-05-04 10:21 | -37.67207 | 144.84559 | 385 ft | 22 kts | 84° |
| 2026-05-04 10:21 | -37.67181 | 144.84668 | 387 ft | 9 kts | 31° |
| 2026-05-04 10:22 | -37.67122 | 144.84713 | 389 ft | 1 kts | 33° |
| 2026-05-04 10:22 | -37.67121 | 144.84714 | 389 ft | 0 kts | 32° |